Time;durP1;ratioP1;P1;durP2;ratioP2;P2;SDS_P1;SDS_P2;PMS_P1;PMS_P2;Temp;Humidity;BMP_temperature;BMP_pressure;BME280_temperature;BME280_humidity;BME280_pressure;Samples;Min_cycle;Max_cycle;Signal;HPM_P1;HPM_P2
2021/10/05 00:01:33;;;;;;;;;;;;;;;7.43;86.23;100593.94;5014281;28;1957;-56
2021/10/05 00:04:00;;;;;;;;;;;;;;;7.39;86.20;100598.56;5014393;28;802;-55
2021/10/05 00:06:27;;;;;;;;;;;;;;;7.35;86.27;100600.47;5014352;28;834;-55
2021/10/05 00:08:54;;;;;;;;;;;;;;;7.32;86.42;100599.22;5014226;28;791;-54
2021/10/05 00:11:22;;;;;;;;;;;;;;;7.29;86.38;100599.16;5014244;28;823;-55
2021/10/05 00:13:49;;;;;;;;;;;;;;;7.26;86.59;100597.91;5014147;28;907;-55
2021/10/05 00:16:14;;;;;;;;;;;;;;;7.23;86.73;100590.38;5014445;28;912;-55
2021/10/05 00:18:41;;;;;;;;;;;;;;;7.17;85.90;100586.34;5013864;28;1196;-55
2021/10/05 00:21:09;;;;;;;;;;;;;;;7.19;87.02;100578.53;5014096;28;875;-54
2021/10/05 00:23:36;;;;;;;;;;;;;;;7.16;86.53;100581.97;5013787;28;1902;-55
2021/10/05 00:26:03;;;;;;;;;;;;;;;7.11;87.17;100579.53;5013714;28;933;-55
2021/10/05 00:28:30;;;;;;;;;;;;;;;7.06;87.72;100580.63;5013703;28;863;-55
2021/10/05 00:30:57;;;;;;;;;;;;;;;7.06;87.53;100580.63;5013831;28;906;-55
2021/10/05 00:33:24;;;;;;;;;;;;;;;7.04;86.89;100587.59;5013780;28;884;-55
2021/10/05 00:35:52;;;;;;;;;;;;;;;7.00;88.00;100579.31;5013749;28;827;-55
2021/10/05 00:38:19;;;;;;;;;;;;;;;6.96;86.85;100570.19;5013954;28;878;-55
2021/10/05 00:40:45;;;;;;;;;;;;;;;6.94;87.87;100569.75;5013843;28;852;-56
2021/10/05 00:43:12;;;;;;;;;;;;;;;6.97;87.10;100565.47;5013555;28;1886;-55
2021/10/05 00:45:39;;;;;;;;;;;;;;;6.95;87.44;100571.31;4996092;28;828;-54
2021/10/05 00:48:06;;;;;;;;;;;;;;;6.92;87.47;100566.56;5013550;28;882;-54
2021/10/05 00:50:33;;;;;;;;;;;;;;;6.91;87.62;100570.44;5013476;28;1216;-55
2021/10/05 00:53:01;;;;;;;;;;;;;;;7.01;87.82;100569.09;5013401;28;859;-56
2021/10/05 00:55:27;;;;;;;;;;;;;;;7.02;86.88;100576.16;5013430;28;878;-55
2021/10/05 00:57:54;;;;;;;;;;;;;;;7.05;87.19;100568.00;5013189;28;989;-55
2021/10/05 01:00:24;;;;;;;;;;;;;;;7.01;87.05;100571.84;5013294;28;945;-55
2021/10/05 01:02:52;;;;;;;;;;;;;;;6.99;87.58;100563.16;5013042;28;1890;-55
2021/10/05 01:05:19;;;;;;;;;;;;;;;6.93;87.68;100565.38;5013200;28;913;-55
2021/10/05 01:07:46;;;;;;;;;;;;;;;6.95;87.91;100576.81;5013448;28;874;-56
2021/10/05 01:10:17;;;;;;;;;;;;;;;6.97;87.92;100580.00;4995602;28;879;-55
2021/10/05 01:12:45;;;;;;;;;;;;;;;6.91;87.68;100576.75;5012956;28;918;-55
2021/10/05 01:15:11;;;;;;;;;;;;;;;6.83;88.14;100572.25;5012957;28;914;-54
2021/10/05 01:17:38;;;;;;;;;;;;;;;6.78;87.87;100575.25;5012621;28;1367;-55
2021/10/05 01:20:06;;;;;;;;;;;;;;;6.79;88.26;100571.38;5012904;28;820;-55
2021/10/05 01:22:33;;;;;;;;;;;;;;;6.81;88.61;100562.78;5012789;28;1918;-55
2021/10/05 01:25:06;;;;;;;;;;;;;;;6.84;88.03;100562.06;5012758;28;855;-55
2021/10/05 01:27:40;;;;;;;;;;;;;;;6.91;88.44;100565.75;5012779;28;919;-55
2021/10/05 01:30:07;;;;;;;;;;;;;;;6.94;88.24;100565.03;5012781;28;819;-55
2021/10/05 01:32:34;;;;;;;;;;;;;;;6.93;88.47;100570.88;5012620;28;851;-56
2021/10/05 01:35:00;;;;;;;;;;;;;;;6.92;87.82;100570.09;4995030;28;927;-55
2021/10/05 01:37:27;;;;;;;;;;;;;;;6.96;88.43;100570.19;5012003;28;977;-56
2021/10/05 01:39:55;;;;;;;;;;;;;;;6.98;88.69;100565.13;5012640;28;855;-56
2021/10/05 01:42:22;;;;;;;;;;;;;;;7.02;88.06;100567.94;5012390;28;1961;-55
2021/10/05 01:44:49;;;;;;;;;;;;;;;7.02;88.60;100566.00;5012489;28;838;-54
2021/10/05 01:47:15;;;;;;;;;;;;;;;7.02;88.13;100563.25;5012468;28;879;-56
2021/10/05 01:49:42;;;;;;;;;;;;;;;7.04;88.90;100568.38;5012491;28;822;-55
2021/10/05 01:52:09;;;;;;;;;;;;;;;7.04;88.79;100573.88;5012266;28;918;-56
2021/10/05 01:54:36;;;;;;;;;;;;;;;7.04;88.37;100571.13;5012345;28;830;-56
2021/10/05 01:57:03;;;;;;;;;;;;;;;7.03;88.31;100570.31;4994656;28;1594;-56
2021/10/05 01:59:29;;;;;;;;;;;;;;;7.03;88.01;100564.03;5012196;28;856;-55
2021/10/05 02:01:56;;;;;;;;;;;;;;;6.99;88.50;100561.19;5012109;28;1890;-56
2021/10/05 02:04:23;;;;;;;;;;;;;;;6.96;88.47;100556.44;5012160;28;894;-55
2021/10/05 02:06:49;;;;;;;;;;;;;;;6.93;88.84;100563.47;5012200;28;831;-56
2021/10/05 02:09:17;;;;;;;;;;;;;;;6.87;88.72;100562.13;5012037;28;888;-55
2021/10/05 02:11:43;;;;;;;;;;;;;;;6.82;88.25;100558.88;5012011;28;870;-56
2021/10/05 02:14:11;;;;;;;;;;;;;;;6.79;88.23;100567.84;5012054;28;1056;-56
2021/10/05 02:16:38;;;;;;;;;;;;;;;6.78;88.65;100567.00;5012166;28;962;-56
2021/10/05 02:19:06;;;;;;;;;;;;;;;6.76;89.45;100566.56;5011748;28;1370;-56
2021/10/05 02:21:33;;;;;;;;;;;;;;;6.70;88.77;100566.06;5011927;28;1922;-56
2021/10/05 02:26:46;;;;;;;;;;;;;;;6.56;89.04;100567.69;5011713;28;1221;-55
2021/10/05 02:29:12;;;;;;;;;;;;;;;6.52;89.02;100570.34;5012220;28;891;-55
2021/10/05 02:31:39;;;;;;;;;;;;;;;6.47;89.25;100562.38;5011731;28;927;-55
2021/10/05 02:34:07;;;;;;;;;;;;;;;6.46;89.39;100566.28;5011841;28;851;-56
2021/10/05 02:36:34;;;;;;;;;;;;;;;6.50;89.12;100559.72;5011620;28;871;-56
2021/10/05 02:39:02;;;;;;;;;;;;;;;6.46;89.44;100553.31;5011801;28;851;-55
2021/10/05 02:41:29;;;;;;;;;;;;;;;6.38;89.09;100556.25;5011878;28;1890;-56
2021/10/05 02:43:56;;;;;;;;;;;;;;;6.37;89.00;100551.94;5011784;28;874;-56
2021/10/05 02:46:23;;;;;;;;;;;;;;;6.37;89.37;100565.66;5011667;28;850;-55
2021/10/05 02:48:50;;;;;;;;;;;;;;;6.40;89.80;100565.75;5011724;28;942;-56
2021/10/05 02:51:17;;;;;;;;;;;;;;;6.42;89.72;100573.63;5015766;28;819;-56
2021/10/05 02:53:44;;;;;;;;;;;;;;;6.45;89.58;100578.44;5015645;28;1276;-56
2021/10/05 02:56:11;;;;;;;;;;;;;;;6.46;89.79;100569.81;5015848;28;1034;-56
2021/10/05 02:58:38;;;;;;;;;;;;;;;6.42;89.92;100573.63;5015489;28;863;-56
2021/10/05 03:01:05;;;;;;;;;;;;;;;6.33;89.12;100569.09;5015542;28;862;-56
2021/10/05 03:03:32;;;;;;;;;;;;;;;6.32;89.81;100581.25;5015303;28;1945;-56
2021/10/05 03:05:59;;;;;;;;;;;;;;;6.34;89.80;100576.22;5015453;28;894;-55
2021/10/05 03:08:29;;;;;;;;;;;;;;;6.37;90.02;100571.16;5015242;28;878;-56
2021/10/05 03:10:58;;;;;;;;;;;;;;;6.42;90.80;100584.59;5015397;28;807;-56
2021/10/05 03:13:27;;;;;;;;;;;;;;;6.46;90.80;100583.53;5015172;28;867;-56
2021/10/05 03:15:54;;;;;;;;;;;;;;;6.54;90.72;100592.75;5015103;28;1045;-56
2021/10/05 03:18:20;;;;;;;;;;;;;;;6.61;91.05;100592.91;5015020;28;1713;-56
2021/10/05 03:20:49;;;;;;;;;;;;;;;6.68;91.00;100586.81;5015108;28;858;-56
2021/10/05 03:23:15;;;;;;;;;;;;;;;6.71;90.30;100597.88;5015013;28;1971;-56
2021/10/05 03:25:42;;;;;;;;;;;;;;;6.74;90.63;100583.44;5014971;28;851;-56
2021/10/05 03:28:09;;;;;;;;;;;;;;;6.79;90.24;100589.81;5014997;28;879;-56
2021/10/05 03:30:35;;;;;;;;;;;;;;;6.81;90.59;100587.50;4997505;28;823;-56
2021/10/05 03:33:03;;;;;;;;;;;;;;;6.83;90.90;100588.75;5014905;28;1064;-55
2021/10/05 03:35:30;;;;;;;;;;;;;;;6.89;90.35;100589.25;5014947;28;838;-54
2021/10/05 03:37:57;;;;;;;;;;;;;;;6.91;90.63;100585.00;5014903;28;807;-56
2021/10/05 03:40:24;;;;;;;;;;;;;;;6.95;91.01;100588.59;5014795;28;831;-56
2021/10/05 03:42:51;;;;;;;;;;;;;;;6.95;90.43;100594.09;5014800;28;1960;-56
2021/10/05 03:45:17;;;;;;;;;;;;;;;6.93;90.41;100592.88;5014713;28;1006;-55
2021/10/05 03:47:44;;;;;;;;;;;;;;;6.86;89.70;100587.22;5014636;28;815;-56
2021/10/05 03:50:13;;;;;;;;;;;;;;;6.82;90.25;100583.59;4997217;28;950;-56
2021/10/05 03:52:39;;;;;;;;;;;;;;;6.78;89.85;100591.75;5014516;28;1118;-55
2021/10/05 03:55:08;;;;;;;;;;;;;;;6.73;90.12;100589.28;5014470;28;867;-56
2021/10/05 03:57:35;;;;;;;;;;;;;;;6.69;90.39;100594.69;4996844;28;1570;-56
2021/10/05 04:00:03;;;;;;;;;;;;;;;6.65;89.47;100585.56;5013875;28;867;-56
2021/10/05 04:02:30;;;;;;;;;;;;;;;6.58;90.44;100592.84;5014300;28;1952;-56
2021/10/05 04:04:58;;;;;;;;;;;;;;;6.52;89.90;100590.34;5014296;28;894;-56
2021/10/05 04:07:25;;;;;;;;;;;;;;;6.50;90.08;100592.66;5014374;28;811;-56
2021/10/05 04:09:52;;;;;;;;;;;;;;;6.56;90.86;100593.19;4996622;28;831;-56
2021/10/05 04:12:19;;;;;;;;;;;;;;;6.56;91.05;100600.66;5014259;28;815;-56
2021/10/05 04:14:45;;;;;;;;;;;;;;;6.52;90.21;100606.84;5014115;28;806;-56
2021/10/05 04:17:12;;;;;;;;;;;;;;;6.49;90.36;100609.53;5014258;28;1409;-55
2021/10/05 04:19:40;;;;;;;;;;;;;;;6.51;91.34;100609.97;5014010;28;926;-56
2021/10/05 04:22:07;;;;;;;;;;;;;;;6.57;90.82;100613.22;5013980;28;1902;-56
2021/10/05 04:24:34;;;;;;;;;;;;;;;6.69;90.98;100613.13;5013851;28;997;-56
2021/10/05 04:27:04;;;;;;;;;;;;;;;6.79;90.75;100612.59;5013898;28;988;-56
2021/10/05 04:29:30;;;;;;;;;;;;;;;7.11;92.88;100615.28;5014009;28;911;-56
2021/10/05 04:31:57;;;;;;;;;;;;;;;7.89;94.18;100615.28;5014083;28;898;-56
2021/10/05 04:34:24;;;;;;;;;;;;;;;8.40;94.08;100612.25;5014095;28;823;-56
2021/10/05 04:36:51;;;;;;;;;;;;;;;8.74;92.86;100623.47;5014020;28;882;-57
2021/10/05 04:39:19;;;;;;;;;;;;;;;8.94;92.35;100613.13;5013895;28;866;-57
2021/10/05 04:41:45;;;;;;;;;;;;;;;9.10;91.95;100624.78;5013870;28;1976;-57
2021/10/05 04:44:12;;;;;;;;;;;;;;;9.22;91.31;100626.53;5013919;28;816;-57
2021/10/05 04:46:39;;;;;;;;;;;;;;;9.33;91.07;100624.72;5013834;28;870;-56
2021/10/05 04:49:06;;;;;;;;;;;;;;;9.44;90.99;100624.84;5013767;28;871;-56
2021/10/05 04:51:34;;;;;;;;;;;;;;;9.55;90.75;100623.00;5013852;28;957;-57
2021/10/05 04:54:00;;;;;;;;;;;;;;;9.66;90.28;100625.91;5013560;28;827;-57
2021/10/05 04:56:27;;;;;;;;;;;;;;;9.78;90.28;100635.91;5013970;28;795;-57
2021/10/05 04:58:54;;;;;;;;;;;;;;;9.93;90.16;100634.09;5013824;28;862;-57
2021/10/05 05:01:21;;;;;;;;;;;;;;;10.09;90.06;100642.97;5013489;28;951;-57
2021/10/05 05:03:48;;;;;;;;;;;;;;;10.33;90.21;100638.88;5013399;28;1981;-57
2021/10/05 05:06:15;;;;;;;;;;;;;;;10.51;89.23;100643.78;5013479;28;859;-57
2021/10/05 05:08:42;;;;;;;;;;;;;;;10.65;88.48;100645.84;5013618;28;896;-57
2021/10/05 05:19:29;;;;;;;;;;;;;;;11.24;84.91;100653.03;4973522;28;1113;-68
2021/10/05 05:21:59;;;;;;;;;;;;;;;11.35;84.35;100649.50;4973880;28;1975;-69
2021/10/05 05:24:50;;;;;;;;;;;;;;;11.45;83.87;100646.00;5236666;23;2087;-61
2021/10/05 05:27:17;;;;;;;;;;;;;;;11.64;82.79;100642.91;4995327;28;1303;-61
2021/10/05 05:29:43;;;;;;;;;;;;;;;11.72;80.99;100642.97;5012869;28;823;-61
2021/10/05 05:32:10;;;;;;;;;;;;;;;11.73;81.43;100634.25;5012774;28;870;-61
2021/10/05 05:34:37;;;;;;;;;;;;;;;11.71;79.78;100633.06;5012774;28;885;-61
2021/10/05 05:37:06;;;;;;;;;;;;;;;11.84;80.10;100640.63;5012678;28;799;-61
2021/10/05 05:39:39;;;;;;;;;;;;;;;12.16;79.41;100630.84;5012887;28;846;-61
2021/10/05 05:42:07;;;;;;;;;;;;;;;12.37;76.51;100636.41;5012785;28;1910;-61
2021/10/05 05:44:34;;;;;;;;;;;;;;;12.48;75.70;100639.19;5013209;28;792;-61
2021/10/05 05:47:01;;;;;;;;;;;;;;;12.60;74.65;100643.56;5012604;28;815;-61
2021/10/05 05:49:27;;;;;;;;;;;;;;;12.76;73.60;100646.75;5013017;28;818;-61
2021/10/05 05:51:54;;;;;;;;;;;;;;;12.96;72.35;100643.53;5012420;28;870;-61
2021/10/05 05:54:21;;;;;;;;;;;;;;;13.28;70.32;100651.81;5012261;28;887;-61
2021/10/05 05:56:49;;;;;;;;;;;;;;;13.52;68.79;100654.94;5012368;28;811;-61
2021/10/05 05:59:16;;;;;;;;;;;;;;;13.55;68.33;100654.94;5012275;28;897;-60
2021/10/05 06:01:42;;;;;;;;;;;;;;;13.52;68.04;100660.50;5012502;28;1890;-60
2021/10/05 06:04:09;;;;;;;;;;;;;;;13.38;67.97;100655.78;5012481;28;838;-61
2021/10/05 06:06:36;;;;;;;;;;;;;;;13.61;67.17;100658.06;5012200;28;886;-61
2021/10/05 06:09:03;;;;;;;;;;;;;;;13.87;66.08;100662.34;5012179;28;839;-60
2021/10/05 06:11:35;;;;;;;;;;;;;;;14.13;65.15;100663.03;5012083;28;814;-61
2021/10/05 06:14:02;;;;;;;;;;;;;;;14.38;63.49;100657.28;5012134;28;814;-61
2021/10/05 06:16:29;;;;;;;;;;;;;;;14.76;63.04;100668.56;4994394;28;1426;-61
2021/10/05 06:18:57;;;;;;;;;;;;;;;15.45;60.68;100661.91;5012027;28;854;-61
2021/10/05 06:21:22;;;;;;;;;;;;;;;15.99;57.49;100668.88;5011994;28;807;-61
2021/10/05 06:23:51;;;;;;;;;;;;;;;16.52;57.50;100670.09;5011618;28;1956;-61
2021/10/05 06:26:17;;;;;;;;;;;;;;;17.22;54.85;100676.91;5024803;28;1303;-61
2021/10/05 06:28:44;;;;;;;;;;;;;;;17.35;53.97;100669.50;5031694;28;834;-61
2021/10/05 06:31:12;;;;;;;;;;;;;;;17.51;53.34;100679.97;5031608;28;826;-61
2021/10/05 06:33:38;;;;;;;;;;;;;;;17.58;51.55;100679.03;5031574;28;795;-61
2021/10/05 06:36:07;;;;;;;;;;;;;;;17.68;51.62;100683.63;5031910;28;814;-61
2021/10/05 06:38:34;;;;;;;;;;;;;;;17.95;50.28;100683.50;5031541;28;988;-61
2021/10/05 06:41:02;;;;;;;;;;;;;;;18.29;48.67;100680.34;5031498;28;842;-61
2021/10/05 06:43:29;;;;;;;;;;;;;;;18.88;48.50;100681.38;5031385;28;1919;-61
2021/10/05 06:45:55;;;;;;;;;;;;;;;19.25;46.25;100681.25;5031721;28;807;-61
2021/10/05 06:48:23;;;;;;;;;;;;;;;19.33;46.35;100675.00;5031643;28;807;-61
2021/10/05 06:50:50;;;;;;;;;;;;;;;19.67;45.43;100684.91;5031497;28;831;-61
2021/10/05 06:53:17;;;;;;;;;;;;;;;19.67;46.31;100684.09;5013567;28;1356;-61
2021/10/05 06:55:46;;;;;;;;;;;;;;;19.75;45.29;100679.88;5031393;28;889;-61
2021/10/05 06:58:13;;;;;;;;;;;;;;;19.46;45.74;100689.06;5031341;28;858;-61
2021/10/05 07:00:54;;;;;;;;;;;;;;;18.80;47.45;100684.78;5031561;28;827;-61
2021/10/05 07:03:20;;;;;;;;;;;;;;;18.01;49.90;100681.78;5031546;28;1886;-60
2021/10/05 07:05:46;;;;;;;;;;;;;;;17.69;51.22;100682.41;5031710;28;877;-61
2021/10/05 07:08:14;;;;;;;;;;;;;;;18.15;50.82;100681.44;5031337;28;906;-61
2021/10/05 07:10:41;;;;;;;;;;;;;;;18.56;49.51;100684.91;5031419;28;874;-61
2021/10/05 07:13:09;;;;;;;;;;;;;;;18.78;48.83;100688.03;5031503;28;868;-61
2021/10/05 07:15:36;;;;;;;;;;;;;;;19.07;47.94;100678.91;5031420;28;795;-61
2021/10/05 07:18:03;;;;;;;;;;;;;;;19.65;47.30;100683.75;5031749;28;799;-61
2021/10/05 07:20:30;;;;;;;;;;;;;;;20.44;45.23;100681.41;5031428;28;818;-61
2021/10/05 07:22:59;;;;;;;;;;;;;;;20.91;44.00;100691.94;5031121;28;1943;-61
2021/10/05 07:25:27;;;;;;;;;;;;;;;21.26;42.21;100681.53;5030975;28;1286;-61
2021/10/05 07:27:55;;;;;;;;;;;;;;;21.26;41.91;100689.19;5013382;28;818;-61
2021/10/05 07:30:23;;;;;;;;;;;;;;;21.42;41.81;100691.81;5031104;28;802;-61
2021/10/05 07:32:51;;;;;;;;;;;;;;;21.73;40.40;100694.72;5031072;28;822;-61
2021/10/05 07:35:19;;;;;;;;;;;;;;;22.15;38.10;100700.00;5031923;28;806;-61
2021/10/05 07:37:47;;;;;;;;;;;;;;;22.08;38.28;100697.44;5034663;28;874;-61
2021/10/05 07:40:20;;;;;;;;;;;;;;;22.14;38.95;100700.44;5034813;28;852;-61
2021/10/05 07:42:52;;;;;;;;;;;;;;;22.51;38.83;100698.63;5034727;28;1918;-61
2021/10/05 07:45:18;;;;;;;;;;;;;;;22.70;36.16;100698.66;5035194;28;841;-59
2021/10/05 07:47:45;;;;;;;;;;;;;;;21.59;36.76;100712.13;5034418;28;858;-59
2021/10/05 07:50:13;;;;;;;;;;;;;;;19.91;40.30;100709.91;5034473;28;995;-59
2021/10/05 07:52:40;;;;;;;;;;;;;;;18.48;43.59;100706.72;5034788;28;766;-59
2021/10/05 07:55:06;;;;;;;;;;;;;;;18.86;43.94;100706.25;5034680;28;747;-59
2021/10/05 07:57:32;;;;;;;;;;;;;;;19.20;41.73;100704.19;5034310;28;857;-59
2021/10/05 07:59:59;;;;;;;;;;;;;;;18.19;43.74;100697.38;5034252;28;794;-59
2021/10/05 08:02:26;;;;;;;;;;;;;;;17.92;45.09;100698.34;5034193;28;1927;-59
2021/10/05 08:04:53;;;;;;;;;;;;;;;17.70;45.64;100695.94;5034157;28;827;-58
2021/10/05 08:07:20;;;;;;;;;;;;;;;17.52;46.13;100695.53;5034357;28;869;-59
2021/10/05 08:09:47;;;;;;;;;;;;;;;18.04;45.95;100694.09;5034031;28;854;-59
2021/10/05 08:12:14;;;;;;;;;;;;;;;18.59;43.60;100698.06;5034095;28;810;-59
2021/10/05 08:14:40;;;;;;;;;;;;;;;18.66;43.78;100694.31;5034029;28;842;-59
2021/10/05 08:17:07;;;;;;;;;;;;;;;19.24;43.06;100699.28;5033911;28;834;-59
2021/10/05 08:19:33;;;;;;;;;;;;;;;19.36;42.00;100695.75;5033891;28;841;-59
2021/10/05 08:22:00;;;;;;;;;;;;;;;19.77;41.57;100688.63;5033673;28;1886;-59
2021/10/05 08:24:27;;;;;;;;;;;;;;;18.91;42.23;100690.94;5033930;28;903;-59
2021/10/05 08:26:54;;;;;;;;;;;;;;;18.17;43.52;100701.38;5033588;28;1355;-59
2021/10/05 08:29:21;;;;;;;;;;;;;;;19.11;42.29;100688.78;5033727;28;807;-59
2021/10/05 08:31:48;;;;;;;;;;;;;;;19.62;41.19;100699.44;5033784;28;850;-59
2021/10/05 08:34:16;;;;;;;;;;;;;;;19.18;41.14;100697.03;5033655;28;827;-59
2021/10/05 08:36:42;;;;;;;;;;;;;;;19.06;41.10;100692.13;5033527;28;854;-59
2021/10/05 08:39:14;;;;;;;;;;;;;;;18.84;40.39;100700.28;5033589;28;862;-59
2021/10/05 08:41:44;;;;;;;;;;;;;;;19.38;39.32;100699.69;5033687;28;1906;-59
2021/10/05 08:44:12;;;;;;;;;;;;;;;20.05;38.48;100694.63;5033490;28;835;-60
2021/10/05 08:46:39;;;;;;;;;;;;;;;20.49;36.08;100706.91;5033330;28;819;-60
2021/10/05 08:49:06;;;;;;;;;;;;;;;20.70;35.84;100699.88;5033429;28;830;-59
2021/10/05 08:51:34;;;;;;;;;;;;;;;20.84;36.17;100707.03;5033213;28;783;-60
2021/10/05 08:54:00;;;;;;;;;;;;;;;21.20;36.74;100698.19;5033325;28;847;-60
2021/10/05 08:56:27;;;;;;;;;;;;;;;21.62;34.46;100705.59;5033346;28;811;-59
2021/10/05 08:58:54;;;;;;;;;;;;;;;21.86;33.69;100702.31;5033190;28;794;-60
2021/10/05 09:01:20;;;;;;;;;;;;;;;21.22;35.03;100706.16;5033138;28;834;-59
2021/10/05 09:03:50;;;;;;;;;;;;;;;21.32;35.48;100707.03;5033005;28;1890;-59
2021/10/05 09:06:19;;;;;;;;;;;;;;;20.51;36.52;100712.88;5033103;28;818;-59
2021/10/05 09:08:46;;;;;;;;;;;;;;;19.51;38.42;100718.59;5033001;28;795;-60
2021/10/05 09:11:13;;;;;;;;;;;;;;;19.36;38.11;100716.16;5032993;28;846;-59
2021/10/05 09:13:43;;;;;;;;;;;;;;;19.51;38.12;100710.19;5032899;28;818;-59
2021/10/05 09:16:21;;;;;;;;;;;;;;;19.67;38.28;100715.75;5015107;28;1307;-59
2021/10/05 09:19:14;;;;;;;;;;;;;;;19.37;38.42;100700.13;5032931;28;953;-59
2021/10/05 09:21:45;;;;;;;;;;;;;;;19.33;38.71;100700.22;5031098;28;1902;-60
2021/10/05 09:24:13;;;;;;;;;;;;;;;19.82;37.37;100707.72;5032773;28;1019;-59
2021/10/05 09:26:41;;;;;;;;;;;;;;;20.17;37.06;100700.28;5032553;28;1275;-60
2021/10/05 09:29:18;;;;;;;;;;;;;;;20.73;36.36;100689.75;5032535;28;825;-60
2021/10/05 09:32:03;;;;;;;;;;;;;;;20.50;36.44;100704.88;5032818;28;826;-60
2021/10/05 09:34:38;;;;;;;;;;;;;;;20.82;35.50;100689.06;5032487;28;860;-60
2021/10/05 09:37:08;;;;;;;;;;;;;;;21.29;34.73;100694.66;5032379;28;818;-59
2021/10/05 09:39:42;;;;;;;;;;;;;;;21.37;34.43;100703.63;5032452;28;878;-59
2021/10/05 09:42:10;;;;;;;;;;;;;;;20.59;35.25;100696.63;5032239;28;1902;-59
2021/10/05 09:44:37;;;;;;;;;;;;;;;20.63;35.65;100700.06;5032397;28;862;-59
2021/10/05 09:47:05;;;;;;;;;;;;;;;21.12;34.17;100693.25;5032187;28;1128;-59
2021/10/05 09:49:39;;;;;;;;;;;;;;;21.74;34.60;100685.06;5032190;28;854;-60
2021/10/05 09:52:06;;;;;;;;;;;;;;;22.79;32.91;100681.78;5032211;28;810;-60
2021/10/05 09:54:33;;;;;;;;;;;;;;;22.35;33.24;100688.38;5032211;28;881;-59
2021/10/05 09:57:00;;;;;;;;;;;;;;;21.52;34.69;100698.31;5032078;28;858;-59
2021/10/05 09:59:26;;;;;;;;;;;;;;;20.25;36.47;100700.84;5013846;28;934;-59
2021/10/05 10:01:54;;;;;;;;;;;;;;;19.38;37.78;100702.50;5032142;28;1989;-59
2021/10/05 10:04:24;;;;;;;;;;;;;;;18.81;38.97;100706.75;5031947;28;814;-59
2021/10/05 10:06:52;;;;;;;;;;;;;;;18.42;39.93;100705.66;5032010;28;838;-59
2021/10/05 10:09:18;;;;;;;;;;;;;;;18.07;40.02;100701.63;5031957;28;865;-59
2021/10/05 10:11:45;;;;;;;;;;;;;;;17.78;40.52;100702.19;5031855;28;852;-59
2021/10/05 10:14:12;;;;;;;;;;;;;;;17.69;40.71;100697.19;5031938;28;846;-59
2021/10/05 10:16:39;;;;;;;;;;;;;;;17.83;40.60;100689.75;5031843;28;850;-59
2021/10/05 10:19:05;;;;;;;;;;;;;;;18.09;40.36;100704.78;5031694;28;838;-59
2021/10/05 10:21:34;;;;;;;;;;;;;;;18.37;40.29;100700.59;5031656;28;870;-59
2021/10/05 10:24:15;;;;;;;;;;;;;;;18.55;39.79;100698.13;5031625;28;1963;-59
2021/10/05 10:26:44;;;;;;;;;;;;;;;18.06;40.12;100698.03;5031688;28;1417;-59
2021/10/05 10:29:13;;;;;;;;;;;;;;;17.82;41.02;100702.94;5031599;28;842;-59
2021/10/05 10:31:41;;;;;;;;;;;;;;;17.79;41.41;100694.59;5013860;28;1477;-59
2021/10/05 10:34:19;;;;;;;;;;;;;;;17.92;41.38;100684.34;5031459;28;882;-59
2021/10/05 10:36:46;;;;;;;;;;;;;;;18.39;40.44;100683.34;5031584;28;893;-60
2021/10/05 10:39:15;;;;;;;;;;;;;;;19.43;39.15;100687.16;5031493;28;851;-60
2021/10/05 10:41:46;;;;;;;;;;;;;;;20.44;37.62;100678.59;5031414;28;1910;-60
2021/10/05 10:44:15;;;;;;;;;;;;;;;20.47;36.46;100680.53;5031479;28;822;-60
2021/10/05 10:46:42;;;;;;;;;;;;;;;20.13;36.35;100673.56;5013686;28;1216;-60
2021/10/05 10:49:15;;;;;;;;;;;;;;;20.83;34.88;100683.00;5031379;28;818;-60
2021/10/05 10:51:44;;;;;;;;;;;;;;;21.80;33.48;100673.97;5031677;28;818;-61
2021/10/05 10:54:13;;;;;;;;;;;;;;;22.63;31.33;100660.28;5031336;28;854;-60
2021/10/05 10:56:42;;;;;;;;;;;;;;;22.27;31.14;100658.16;5013636;28;1268;-60
2021/10/05 10:59:14;;;;;;;;;;;;;;;22.43;31.62;100669.16;5031338;28;850;-60
2021/10/05 11:01:45;;;;;;;;;;;;;;;21.56;32.52;100680.06;5031448;28;1969;-60
2021/10/05 11:04:12;;;;;;;;;;;;;;;20.40;34.61;100675.94;5031330;28;964;-59
2021/10/05 11:06:43;;;;;;;;;;;;;;;19.73;35.94;100687.94;5031343;28;876;-59
2021/10/05 11:09:10;;;;;;;;;;;;;;;19.12;36.88;100684.00;5031247;28;897;-59
2021/10/05 11:11:38;;;;;;;;;;;;;;;18.93;37.57;100678.03;5034315;28;877;-59
2021/10/05 11:14:07;;;;;;;;;;;;;;;20.13;35.57;100668.72;5035097;28;877;-59
2021/10/05 11:16:35;;;;;;;;;;;;;;;21.04;34.09;100663.81;5035101;28;841;-60
2021/10/05 11:19:16;;;;;;;;;;;;;;;20.62;34.42;100659.19;5035012;28;790;-60
2021/10/05 11:21:47;;;;;;;;;;;;;;;20.03;35.63;100661.41;5034864;28;1888;-59
2021/10/05 11:24:15;;;;;;;;;;;;;;;19.47;37.19;100667.44;5034878;28;892;-59
2021/10/05 11:26:44;;;;;;;;;;;;;;;19.14;38.12;100670.31;5034739;28;1242;-59
2021/10/05 11:29:12;;;;;;;;;;;;;;;19.22;38.49;100663.28;5034785;28;830;-59
2021/10/05 11:31:41;;;;;;;;;;;;;;;19.72;38.46;100667.53;5035130;28;878;-59
2021/10/05 11:34:08;;;;;;;;;;;;;;;20.70;36.74;100668.19;5034985;28;866;-60
2021/10/05 11:36:35;;;;;;;;;;;;;;;21.28;35.11;100673.41;5034735;28;842;-60
2021/10/05 11:39:03;;;;;;;;;;;;;;;21.67;34.63;100659.97;5034677;28;847;-60
2021/10/05 11:41:40;;;;;;;;;;;;;;;21.53;33.82;100668.94;5034639;28;810;-60
2021/10/05 11:44:12;;;;;;;;;;;;;;;20.47;35.37;100674.91;5034736;28;850;-59
2021/10/05 11:46:39;;;;;;;;;;;;;;;20.47;35.28;100656.03;5034774;28;810;-60
2021/10/05 11:49:06;;;;;;;;;;;;;;;20.97;35.34;100653.63;5034399;28;811;-60
2021/10/05 11:51:41;;;;;;;;;;;;;;;21.96;33.76;100661.72;5034451;28;862;-60
2021/10/05 11:54:16;;;;;;;;;;;;;;;22.86;32.33;100642.03;5034433;28;904;-60
2021/10/05 11:56:43;;;;;;;;;;;;;;;23.01;31.32;100643.00;5016617;28;1177;-60
2021/10/05 11:59:19;;;;;;;;;;;;;;;23.11;30.69;100649.44;5016559;28;1247;-60
2021/10/05 12:01:46;;;;;;;;;;;;;;;23.33;30.22;100654.94;5034183;28;1882;-60
2021/10/05 12:04:13;;;;;;;;;;;;;;;23.86;30.13;100653.00;5034493;28;866;-60
2021/10/05 12:06:41;;;;;;;;;;;;;;;25.09;28.74;100662.75;5034223;28;799;-61
2021/10/05 12:09:15;;;;;;;;;;;;;;;24.96;29.03;100646.03;5034108;28;889;-60
2021/10/05 12:11:44;;;;;;;;;;;;;;;22.46;32.30;100637.25;5034358;28;890;-60
2021/10/05 12:14:12;;;;;;;;;;;;;;;21.08;35.20;100668.09;5034033;28;818;-59
2021/10/05 12:16:40;;;;;;;;;;;;;;;20.22;36.28;100661.66;5034057;28;882;-59
2021/10/05 12:19:07;;;;;;;;;;;;;;;19.86;37.38;100663.50;5033827;28;811;-59
2021/10/05 12:21:34;;;;;;;;;;;;;;;19.62;37.78;100660.19;5033555;28;799;-59
2021/10/05 12:24:01;;;;;;;;;;;;;;;19.45;37.60;100662.25;5033789;28;1881;-60
2021/10/05 12:26:28;;;;;;;;;;;;;;;19.10;37.60;100661.22;5015875;28;1244;-59
2021/10/05 12:29:06;;;;;;;;;;;;;;;19.23;37.71;100661.28;5033765;28;799;-60
2021/10/05 12:31:33;;;;;;;;;;;;;;;19.76;36.63;100662.63;5033716;28;814;-60
2021/10/05 12:34:08;;;;;;;;;;;;;;;19.60;36.36;100654.22;5033623;28;806;-60
2021/10/05 12:36:37;;;;;;;;;;;;;;;20.47;35.79;100652.47;5033684;28;873;-59
2021/10/05 12:39:12;;;;;;;;;;;;;;;21.05;34.46;100654.94;5033554;28;897;-60
2021/10/05 12:41:40;;;;;;;;;;;;;;;21.11;33.44;100653.13;5033488;28;811;-60
2021/10/05 12:44:14;;;;;;;;;;;;;;;22.12;32.05;100641.00;5015746;28;815;-60
2021/10/05 12:46:39;;;;;;;;;;;;;;;22.97;31.27;100642.34;5033557;28;818;-60
2021/10/05 12:49:14;;;;;;;;;;;;;;;22.99;31.68;100648.31;5033391;28;842;-60
2021/10/05 12:51:44;;;;;;;;;;;;;;;22.22;32.89;100648.25;5033329;28;850;-60
2021/10/05 12:54:12;;;;;;;;;;;;;;;21.10;35.04;100659.19;5033350;28;857;-60
2021/10/05 12:56:39;;;;;;;;;;;;;;;20.58;35.52;100662.13;5033215;28;869;-60
2021/10/05 12:59:06;;;;;;;;;;;;;;;20.33;36.38;100662.09;5033204;28;834;-60
2021/10/05 13:01:38;;;;;;;;;;;;;;;19.99;36.83;100660.72;5033184;28;806;-60
2021/10/05 13:04:10;;;;;;;;;;;;;;;20.11;36.98;100657.16;5033076;28;1891;-60
2021/10/05 13:06:37;;;;;;;;;;;;;;;21.28;35.50;100662.19;5033138;28;783;-60
2021/10/05 13:09:05;;;;;;;;;;;;;;;22.47;34.09;100654.91;5033182;28;838;-60
2021/10/05 13:11:33;;;;;;;;;;;;;;;23.05;33.33;100656.97;5033446;28;812;-61
2021/10/05 13:14:00;;;;;;;;;;;;;;;23.07;32.59;100660.09;5033145;28;834;-60